岡山グライダークラブ活動状況掲示板あなたは無料カウンター人目の訪問者です

岡山グライダークラブ
岡山市浦安南町639-1 岡南飛行場
 使用機:シャイベ式 SF25C型 ファルケ   JA2330
      ヴァレンティン式17E型 タイフーン  JA2342
 練習日:毎日曜日  クラブルーム:電話 086-265-1810
この掲示板は岡山グライダークラブの活動状況をお知らせする掲示板です。
!!!この掲示板は投稿規制をしています。!!!
クラブ関連各種情報は 岡山グライダークラブクラブルーム      を       .
  ブリーフイング情報は  岡山グライダークラブブリーフィングルーム  をご覧下さい。 .
※写真はクリックすると拡大して見ることが出来ます。
岡南飛行場へのアクセス等は 岡南飛行場管理事務所 をご覧ください。
クラブの ホームページ ができました。

 
02月02日
by OGC at 2020/2/2(日) 21:33:05 No.20200202213044  削除コメント
1024 x 768 x 63,552バイト
No.1

02月02日
本日の参加者
  会員      15名
  その他      0名


@本日の様子





METAR
RJBK 020000Z VRB02KT 10KM FEW060SC 03/01 Q1025 A3028
RJOB 020000Z 27004KT 9999 FEW025 06/01 Q1023
RJOT 020000Z 23007KT 9999 FEW025 SCT/// 07/01 Q1024
RJOA 020000Z 31003KT 9999 BKN045 05/M02 Q1024
TAF
RJOB 012306Z 0200/0306 24006KT 9999 FEW025
     BECMG 0212/0215 01004KT
     BECMG 0300/0303 26009KT
RJOT 012308Z 0200/0306 27008KT 9999 FEW025
RJOA 012306Z 0200/0306 20005KT 9999 FEW025 SCT045
     BECMG 0300/0303 27011KT

本日の天候は、風が弱く絶好の着陸練習日和でした。ファルケはいつも通りTGL
や滑空着陸訓練したりしていました。一方、タイフーンの整備も終わり、来週から
本格復帰となります。

解散    18:10

1番機  10:40離陸 撤収機  17:25着陸 

SF25C JA2330 ファルケ     11Flt.3h55min  
17E   JA2342 タイフーン    01Flt.0h10min  
合計                    12Flt.4h05min

    << 戻る || ホームページ || 最新の掲示板へ